Time;durP1;ratioP1;P1;durP2;ratioP2;P2;SDS_P1;SDS_P2;PMS_P1;PMS_P2;Temp;Humidity;BMP_temperature;BMP_pressure;BME280_temperature;BME280_humidity;BME280_pressure;Samples;Min_cycle;Max_cycle;Signal;HPM_P1;HPM_P2
2022/10/19 08:01:17;;;;;;;12.77;6.57;;;;;;;9.88;99.02;102521.25;5310241;27;20830;-70
2022/10/19 08:03:51;;;;;;;16.42;12.18;;;;;;;9.94;98.79;102512.78;5292732;28;20067;-69
2022/10/19 08:06:23;;;;;;;10.75;7.35;;;;;;;9.97;99.06;102509.53;5287908;28;20107;-69
2022/10/19 08:08:55;;;;;;;13.25;7.88;;;;;;;10.06;99.36;102520.25;5300782;28;20100;-70
2022/10/19 08:11:29;;;;;;;22.40;12.65;;;;;;;10.18;99.69;102515.50;5292116;28;20025;-69
2022/10/19 08:14:02;;;;;;;21.83;11.82;;;;;;;10.15;99.21;102518.75;5280620;28;20495;-70
2022/10/19 08:16:33;;;;;;;107.07;54.17;;;;;;;10.20;99.28;102516.94;5280320;28;20025;-69
2022/10/19 08:19:12;;;;;;;15.77;10.40;;;;;;;10.35;98.53;102513.63;5279235;28;20110;-69
2022/10/19 08:21:45;;;;;;;12.10;6.40;;;;;;;10.43;97.98;102506.84;5294191;28;20051;-70
2022/10/19 08:24:18;;;;;;;15.05;8.85;;;;;;;10.47;98.39;102501.66;5300751;28;20048;-69
2022/10/19 08:26:50;;;;;;;14.05;7.97;;;;;;;10.53;98.71;102486.78;5299902;28;20021;-70
2022/10/19 08:29:22;;;;;;;11.85;7.53;;;;;;;10.60;98.67;102488.31;5297302;28;20387;-71
2022/10/19 08:31:53;;;;;;;11.90;7.00;;;;;;;10.69;98.73;102480.44;5279310;28;20036;-71
2022/10/19 08:34:25;;;;;;;21.30;11.88;;;;;;;10.78;99.39;102481.69;5280312;28;20104;-70
2022/10/19 08:36:56;;;;;;;11.55;6.45;;;;;;;10.82;98.22;102474.56;5300598;28;20025;-70
2022/10/19 08:39:27;;;;;;;9.63;6.25;;;;;;;10.81;97.76;102475.66;5291954;28;20051;-70
2022/10/19 08:42:19;;;;;;;10.98;5.57;;;;;;;10.88;97.92;102473.53;5292095;28;20020;-69
2022/10/19 08:45:33;;;;;;;9.30;5.88;;;;;;;10.93;98.70;102471.94;5295976;28;20099;-71
2022/10/19 08:48:17;;;;;;;10.48;6.50;;;;;;;10.98;98.10;102466.47;5279259;28;20041;-70
2022/10/19 08:50:49;;;;;;;13.93;6.30;;;;;;;11.07;98.06;102464.97;5280977;28;20483;-72
2022/10/19 08:53:30;;;;;;;8.35;5.25;;;;;;;11.14;97.49;102471.16;5298962;28;20029;-70
2022/10/19 08:56:32;;;;;;;9.20;5.57;;;;;;;11.12;96.32;102466.97;5298837;28;20039;-71
2022/10/19 08:59:20;;;;;;;11.73;6.53;;;;;;;11.21;96.58;102466.28;5286285;28;20395;-70
2022/10/19 09:02:03;;;;;;;10.57;5.82;;;;;;;11.29;95.98;102471.41;5278508;28;20119;-70
2022/10/19 09:04:40;;;;;;;12.85;5.38;;;;;;;11.37;96.33;102463.72;5284745;28;20115;-68
2022/10/19 09:07:52;;;;;;;10.75;5.25;;;;;;;11.46;96.79;102467.75;5278095;28;20165;-71
2022/10/19 09:10:31;;;;;;;9.20;4.95;;;;;;;11.57;96.23;102452.91;5254820;28;20115;-67
2022/10/19 09:13:17;;;;;;;14.82;6.03;;;;;;;11.57;93.84;102452.91;5258743;28;20037;-67
2022/10/19 09:15:50;;;;;;;13.67;5.73;;;;;;;11.58;93.25;102453.72;5270609;28;20045;-68
2022/10/19 09:18:28;;;;;;;13.73;5.53;;;;;;;11.62;93.39;102454.91;5278907;28;20032;-68
2022/10/19 09:21:11;;;;;;;11.95;6.72;;;;;;;11.60;92.28;102469.06;5282767;28;20101;-69
2022/10/19 09:23:54;;;;;;;14.05;6.15;;;;;;;11.72;93.10;102478.13;5264476;28;20025;-68
2022/10/19 09:26:29;;;;;;;12.15;5.80;;;;;;;11.66;91.79;102472.78;5265111;28;20454;-68
2022/10/19 09:29:22;;;;;;;10.60;5.95;;;;;;;11.69;91.34;102475.03;5278105;28;20021;-68
2022/10/19 09:31:57;;;;;;;13.80;6.18;;;;;;;11.69;91.87;102472.25;5271994;28;20102;-68
2022/10/19 09:34:35;;;;;;;7.88;4.95;;;;;;;11.83;92.73;102467.13;5285120;28;20036;-69
2022/10/19 09:37:06;;;;;;;8.05;5.32;;;;;;;11.86;92.06;102472.16;5284147;28;20489;-70
2022/10/19 09:39:38;;;;;;;13.88;5.07;;;;;;;11.97;91.94;102457.34;5269400;28;20033;-70
2022/10/19 09:42:28;;;;;;;13.25;5.65;;;;;;;12.08;91.25;102459.13;5273296;28;20075;-70
2022/10/19 09:45:10;;;;;;;9.18;6.05;;;;;;;12.16;90.90;102453.09;5269638;28;20020;-69
2022/10/19 09:47:46;;;;;;;14.40;5.30;;;;;;;12.21;89.84;102451.47;5285077;28;20039;-67
2022/10/19 09:50:22;;;;;;;8.18;5.82;;;;;;;12.39;89.44;102442.75;5275782;28;20063;-67
2022/10/19 09:53:04;;;;;;;9.57;5.13;;;;;;;12.50;89.20;102433.44;5264115;28;20092;-67
2022/10/19 09:55:42;;;;;;;11.68;4.32;;;;;;;12.69;89.57;102430.25;5264684;28;20029;-68
2022/10/19 09:58:13;;;;;;;11.85;5.40;;;;;;;12.54;86.99;102429.00;5263740;28;20368;-68
2022/10/19 10:00:50;;;;;;;13.00;4.63;;;;;;;12.56;86.45;102431.53;5265364;28;20048;-68
2022/10/19 10:03:34;;;;;;;10.43;4.30;;;;;;;12.57;86.49;102427.63;5262765;28;20356;-68
2022/10/19 10:06:08;;;;;;;8.30;4.47;;;;;;;12.59;87.05;102420.69;5279033;28;20024;-68
2022/10/19 10:08:49;;;;;;;9.95;4.20;;;;;;;12.72;86.30;102422.19;5274428;28;20028;-68
2022/10/19 10:11:31;;;;;;;9.88;4.50;;;;;;;12.77;85.68;102424.19;5268526;28;20529;-68
2022/10/19 10:14:13;;;;;;;12.45;4.25;;;;;;;13.08;90.71;102427.19;5271031;28;20468;-69
2022/10/19 10:16:45;;;;;;;6.88;4.05;;;;;;;12.78;83.89;102428.63;5270071;28;20025;-68
2022/10/19 10:19:17;;;;;;;6.88;3.95;;;;;;;12.74;82.70;102425.56;5274747;28;20032;-68
2022/10/19 10:21:54;;;;;;;12.30;4.03;;;;;;;12.78;82.81;102431.41;5266330;28;20055;-69
2022/10/19 10:24:30;;;;;;;6.60;3.88;;;;;;;12.78;82.72;102431.41;5262010;28;20110;-68
2022/10/19 10:27:05;;;;;;;5.47;3.35;;;;;;;13.08;84.46;102421.63;5263485;28;20032;-68
2022/10/19 10:29:38;;;;;;;9.52;3.70;;;;;;;12.90;80.39;102420.94;5264165;28;20110;-69
2022/10/19 10:32:15;;;;;;;7.47;3.70;;;;;;;12.93;80.07;102425.97;5267370;28;20021;-68
2022/10/19 10:34:47;;;;;;;7.28;4.10;;;;;;;12.95;80.39;102420.97;5275431;28;20057;-68
2022/10/19 10:37:29;;;;;;;8.38;4.72;;;;;;;12.99;80.02;102408.19;5265092;28;20048;-70
2022/10/19 10:40:02;;;;;;;5.95;3.78;;;;;;;13.07;79.99;102408.81;5261998;28;20033;-68
2022/10/19 10:42:42;;;;;;;8.90;3.88;;;;;;;13.19;79.28;102403.84;5281383;28;20081;-68
2022/10/19 10:45:22;;;;;;;8.15;3.97;;;;;;;13.17;79.38;102395.78;5283159;28;20379;-68
2022/10/19 10:47:55;;;;;;;8.25;3.88;;;;;;;13.21;79.42;102404.44;5262114;28;20028;-67
2022/10/19 10:50:35;;;;;;;10.18;4.90;;;;;;;13.21;78.52;102401.63;5263567;28;20090;-67
2022/10/19 10:53:35;;;;;;;7.05;4.18;;;;;;;13.27;79.25;102407.00;5261691;28;20059;-67
2022/10/19 10:56:25;;;;;;;8.93;4.13;;;;;;;13.36;78.93;102401.75;5266994;28;20082;-69
2022/10/19 10:59:26;;;;;;;9.93;5.03;;;;;;;13.46;79.55;102390.66;5283497;28;20395;-69
2022/10/19 11:02:11;;;;;;;10.82;4.78;;;;;;;13.55;79.03;102387.34;5282018;28;20460;-69
2022/10/19 11:04:50;;;;;;;8.82;4.60;;;;;;;13.63;78.63;102384.88;5262789;28;20037;-69
2022/10/19 11:07:25;;;;;;;14.35;5.85;;;;;;;13.66;77.76;102372.34;5265759;28;20064;-69
2022/10/19 11:10:02;;;;;;;9.20;4.95;;;;;;;13.77;77.92;102374.06;5283668;28;20414;-68
2022/10/19 11:12:38;;;;;;;8.23;4.47;;;;;;;13.85;77.71;102365.13;5283232;28;20086;-69
2022/10/19 11:15:19;;;;;;;7.88;4.22;;;;;;;13.88;77.49;102361.81;5282784;28;20073;-70
2022/10/19 11:18:00;;;;;;;11.55;5.55;;;;;;;13.87;77.22;102367.66;5283379;28;20146;-69
2022/10/19 11:20:39;;;;;;;10.57;4.60;;;;;;;14.01;76.10;102368.81;5282440;28;20024;-69
2022/10/19 11:23:18;;;;;;;10.40;5.10;;;;;;;14.05;75.75;102352.38;5269636;28;20025;-69
2022/10/19 11:26:18;;;;;;;10.02;5.50;;;;;;;14.09;75.73;102359.91;5262892;28;20051;-69
2022/10/19 11:29:04;;;;;;;9.48;4.60;;;;;;;14.21;75.50;102342.88;5261996;28;20032;-68
2022/10/19 11:31:50;;;;;;;;;;;;;;;14.35;75.42;102334.81;5262788;28;20108;-68
2022/10/19 11:34:36;;;;;;;7.70;4.57;;;;;;;14.19;73.62;102325.59;5278487;28;19962;-69
2022/10/19 11:37:34;;;;;;;11.82;4.65;;;;;;;14.28;74.77;102321.13;5278484;28;20016;-67
2022/10/19 11:40:13;;;;;;;12.02;5.75;;;;;;;14.38;74.31;102319.47;5267416;28;20120;-67
2022/10/19 11:43:09;;;;;;;9.98;5.72;;;;;;;14.49;77.40;102304.38;5271751;28;20119;-68
2022/10/19 11:45:46;;;;;;;;;;;;;;;14.65;78.71;102294.03;5262960;28;20376;-68
2022/10/19 11:48:32;;;;;;;9.65;5.07;;;;;;;14.61;74.07;102292.94;5262042;28;19912;-68
2022/10/19 11:51:32;;;;;;;12.70;5.22;;;;;;;14.62;73.23;102269.47;5261319;28;20052;-68
2022/10/19 11:54:19;;;;;;;10.38;5.10;;;;;;;14.55;71.28;102269.81;5269403;28;20075;-68
2022/10/19 11:56:58;;;;;;;11.48;4.90;;;;;;;14.52;71.75;102261.94;5280060;28;20041;-68
2022/10/19 11:59:47;;;;;;;10.00;4.97;;;;;;;14.61;72.79;102257.50;5273729;28;20052;-68
2022/10/19 12:02:42;;;;;;;10.73;5.20;;;;;;;14.77;75.90;102250.72;5282699;28;20032;-68
2022/10/19 12:05:47;;;;;;;9.75;5.10;;;;;;;14.75;71.93;102241.81;5281930;28;20036;-67
2022/10/19 12:08:35;;;;;;;13.27;4.97;;;;;;;14.79;71.68;102237.31;5274407;28;20032;-68
2022/10/19 12:11:38;;;;;;;9.95;4.28;;;;;;;14.90;70.87;102238.13;5269244;28;20032;-68
2022/10/19 12:14:14;;;;;;;10.93;5.22;;;;;;;14.77;70.05;102235.94;5282394;28;20032;-68
2022/10/19 12:16:56;;;;;;;10.65;4.88;;;;;;;14.97;70.00;102237.81;5262938;28;20027;-67
2022/10/19 12:19:49;;;;;;;9.63;5.57;;;;;;;15.04;68.80;102241.16;5261943;28;20029;-67
2022/10/19 12:22:27;;;;;;;6.97;4.85;;;;;;;14.97;68.75;102235.84;5267404;28;20025;-68
2022/10/19 12:25:00;;;;;;;9.38;4.43;;;;;;;15.05;68.65;102233.59;5263604;28;20538;-68
2022/10/19 12:27:35;;;;;;;11.95;4.70;;;;;;;15.25;70.35;102221.50;5264839;28;20023;-69
2022/10/19 12:30:18;;;;;;;6.55;3.97;;;;;;;15.18;68.16;102213.41;5280358;28;20032;-69
2022/10/19 12:33:17;;;;;;;6.65;3.85;;;;;;;15.37;71.73;102213.59;5268867;28;20032;-67
2022/10/19 12:35:54;;;;;;;12.48;3.85;;;;;;;15.48;68.78;102206.81;5266331;28;20040;-70
2022/10/19 12:38:25;;;;;;;7.82;3.97;;;;;;;15.41;64.80;102201.53;5280467;28;20375;-70
2022/10/19 12:41:09;;;;;;;8.63;3.22;;;;;;;15.35;64.38;102202.69;5280479;28;20056;-70
2022/10/19 12:43:58;;;;;;;7.75;3.47;;;;;;;15.43;64.23;102193.69;5260956;28;20033;-70
2022/10/19 12:46:55;;;;;;;8.57;3.72;;;;;;;15.47;63.55;102193.09;5264095;28;20021;-69
2022/10/19 12:49:34;;;;;;;6.47;3.42;;;;;;;15.53;63.67;102190.00;5285345;28;20048;-69
2022/10/19 12:52:06;;;;;;;8.68;3.70;;;;;;;15.44;62.11;102175.81;5284907;28;20059;-70
2022/10/19 12:54:41;;;;;;;8.88;3.92;;;;;;;15.49;62.36;102172.13;5285902;28;20025;-72
2022/10/19 12:57:42;;;;;;;7.50;2.80;;;;;;;15.54;62.16;102177.66;5272982;28;20456;-71
2022/10/19 13:00:27;;;;;;;7.10;2.78;;;;;;;15.57;62.34;102182.72;5274584;28;20119;-69
2022/10/19 13:03:23;;;;;;;6.78;3.60;;;;;;;15.63;63.06;102187.13;5270724;28;20442;-70
2022/10/19 13:06:00;;;;;;;5.80;3.13;;;;;;;15.49;62.51;102179.69;5265383;28;20427;-69
2022/10/19 13:08:51;;;;;;;11.77;3.80;;;;;;;15.57;63.01;102173.47;5278077;28;20114;-70
2022/10/19 13:11:22;;;;;;;11.05;3.78;;;;;;;15.40;62.47;102176.69;5272741;28;20037;-69
2022/10/19 13:13:57;;;;;;;9.90;4.32;;;;;;;15.41;62.35;102167.16;5284385;28;20024;-69
2022/10/19 13:16:28;;;;;;;7.35;3.38;;;;;;;15.22;62.57;102170.63;5285567;28;20127;-69
2022/10/19 13:19:19;;;;;;;6.63;3.90;;;;;;;15.28;63.57;102177.03;5278661;28;20132;-69
2022/10/19 13:22:02;;;;;;;11.52;3.05;;;;;;;15.13;62.98;102166.75;5277605;28;20052;-69
2022/10/19 13:24:36;;;;;;;7.55;3.30;;;;;;;15.14;63.21;102162.88;5285228;28;20043;-69
2022/10/19 13:27:23;;;;;;;6.93;4.05;;;;;;;15.15;64.13;102153.34;5276874;28;20077;-69
2022/10/19 13:29:55;;;;;;;7.65;3.85;;;;;;;15.04;64.03;102139.75;5287102;28;20089;-69
2022/10/19 13:32:46;;;;;;;10.65;4.00;;;;;;;15.07;65.08;102133.56;5295320;28;20016;-70
2022/10/19 13:35:20;;;;;;;9.30;3.65;;;;;;;15.04;65.44;102135.00;5285064;28;20027;-69
2022/10/19 13:38:13;;;;;;;5.32;4.22;;;;;;;15.15;68.17;102135.75;5306171;28;20020;-69
2022/10/19 13:40:50;;;;;;;10.38;3.08;;;;;;;15.00;64.50;102131.09;5283504;28;20065;-69
2022/10/19 13:43:28;;;;;;;5.25;2.90;;;;;;;14.97;65.07;102128.88;5272525;28;20036;-69
2022/10/19 13:46:06;;;;;;;7.60;3.95;;;;;;;14.95;65.68;102114.34;5284884;28;20028;-68
2022/10/19 13:49:15;;;;;;;8.40;3.78;;;;;;;15.00;65.82;102112.38;5279717;28;20020;-69
2022/10/19 13:51:53;;;;;;;7.43;3.35;;;;;;;15.20;73.56;102099.41;5264361;28;20033;-69
2022/10/19 13:54:42;;;;;;;7.47;3.50;;;;;;;15.08;67.53;102099.75;5282782;28;20025;-69
2022/10/19 13:57:49;;;;;;;10.82;3.60;;;;;;;15.12;68.40;102098.06;5277317;28;20029;-69
2022/10/19 14:00:44;;;;;;;7.70;3.50;;;;;;;15.08;66.80;102093.31;5267143;28;20589;-69
2022/10/19 14:03:25;;;;;;;10.20;3.80;;;;;;;15.06;66.30;102098.34;5282873;28;20469;-68
2022/10/19 14:06:23;;;;;;;7.35;5.15;;;;;;;15.04;66.93;102093.09;5282779;28;20112;-68
2022/10/19 14:09:17;;;;;;;6.38;3.22;;;;;;;15.10;66.53;102094.69;5282877;28;20036;-68
2022/10/19 14:11:51;;;;;;;9.10;4.45;;;;;;;14.99;64.89;102093.13;5274209;28;20032;-70
2022/10/19 14:14:24;;;;;;;13.00;6.63;;;;;;;15.01;65.80;102088.09;5283888;28;20107;-69
2022/10/19 14:17:00;;;;;;;6.97;4.82;;;;;;;15.07;66.31;102089.69;5271074;28;20116;-69
2022/10/19 14:19:53;;;;;;;11.90;4.43;;;;;;;15.11;66.94;102096.41;5265112;28;20039;-69
2022/10/19 14:22:36;;;;;;;12.07;4.40;;;;;;;15.16;66.56;102090.78;5280313;28;20552;-70
2022/10/19 14:25:23;;;;;;;9.45;4.68;;;;;;;15.25;66.42;102090.13;5277484;28;20032;-69
2022/10/19 14:28:00;;;;;;;7.07;3.97;;;;;;;15.26;65.91;102089.00;5278142;28;20029;-78
2022/10/19 14:30:35;;;;;;;6.40;3.55;;;;;;;15.49;69.42;102095.81;5283135;28;20037;-70
2022/10/19 14:33:09;;;;;;;12.20;4.10;;;;;;;15.40;65.31;102087.22;5282157;28;20064;-70
2022/10/19 14:35:44;;;;;;;6.50;3.95;;;;;;;15.41;65.27;102088.88;5280513;28;20021;-69
2022/10/19 14:38:20;;;;;;;10.27;4.97;;;;;;;15.51;65.12;102087.97;5267105;28;20556;-69
2022/10/19 14:40:52;;;;;;;8.60;3.38;;;;;;;15.53;66.67;102083.75;5293993;28;20036;-69
2022/10/19 14:43:26;;;;;;;5.93;3.60;;;;;;;15.65;64.79;102072.19;5265518;28;20032;-68
2022/10/19 14:46:09;;;;;;;7.80;3.13;;;;;;;15.54;64.46;102076.19;5282933;28;20375;-68
2022/10/19 14:48:45;;;;;;;10.57;3.08;;;;;;;15.51;65.92;102069.22;5273035;28;20155;-69
2022/10/19 14:51:29;;;;;;;6.97;3.60;;;;;;;15.39;64.93;102063.19;5263237;28;20103;-71
2022/10/19 14:54:30;;;;;;;10.65;3.40;;;;;;;15.36;64.84;102061.81;5262133;28;20024;-69
2022/10/19 14:57:10;;;;;;;7.43;3.78;;;;;;;15.33;64.59;102061.56;5262635;28;20033;-70
2022/10/19 14:59:55;;;;;;;10.30;4.07;;;;;;;15.38;64.35;102050.34;5261703;28;20082;-70
2022/10/19 15:02:38;;;;;;;8.80;4.18;;;;;;;15.39;64.77;102046.41;5281821;28;20095;-69
2022/10/19 15:05:21;;;;;;;7.60;3.70;;;;;;;15.46;64.44;102041.31;5282438;28;20082;-69
2022/10/19 15:07:53;;;;;;;9.85;3.30;;;;;;;15.38;63.92;102044.75;5282221;28;20024;-68
2022/10/19 15:10:34;;;;;;;6.28;3.42;;;;;;;15.29;64.38;102035.31;5281675;28;20078;-69
2022/10/19 15:13:06;;;;;;;11.02;4.00;;;;;;;15.31;64.68;102033.06;5282819;28;20023;-69
2022/10/19 15:15:49;;;;;;;14.80;3.33;;;;;;;15.27;65.23;102038.41;5284015;28;20024;-70
2022/10/19 15:18:24;;;;;;;6.88;3.47;;;;;;;15.21;64.58;102029.25;5273199;28;20082;-67
2022/10/19 15:21:18;;;;;;;5.47;3.15;;;;;;;15.12;65.28;102031.00;5261581;28;20033;-67
2022/10/19 15:23:51;;;;;;;16.50;4.18;;;;;;;15.10;66.13;102024.84;5262669;28;20078;-68
2022/10/19 15:26:25;;;;;;;6.72;3.78;;;;;;;15.04;68.25;102023.25;5266646;28;20061;-69
2022/10/19 15:29:18;;;;;;;7.45;3.03;;;;;;;15.05;68.12;102021.28;5262977;28;20040;-68
2022/10/19 15:31:55;;;;;;;5.80;2.97;;;;;;;14.92;68.73;102011.59;5274110;28;20048;-68
2022/10/19 15:34:28;;;;;;;6.07;3.60;;;;;;;14.92;70.30;102008.81;5265627;28;20047;-69
2022/10/19 15:37:00;;;;;;;8.95;3.55;;;;;;;14.69;71.14;102002.81;5276060;28;20028;-67
2022/10/19 15:39:33;;;;;;;7.75;3.05;;;;;;;14.75;71.08;101998.03;5272931;28;20031;-68
2022/10/19 15:42:45;;;;;;;7.50;3.70;;;;;;;14.76;71.69;101992.16;5278441;28;20025;-68
2022/10/19 15:45:36;;;;;;;7.05;3.17;;;;;;;14.66;73.30;101983.84;5280930;28;20494;-68
2022/10/19 15:48:20;;;;;;;6.10;2.75;;;;;;;14.60;72.37;101979.44;5279845;28;20033;-67
2022/10/19 15:50:53;;;;;;;6.50;2.92;;;;;;;14.68;72.92;101984.41;5262446;28;20055;-67
2022/10/19 15:53:27;;;;;;;6.82;3.17;;;;;;;14.62;72.59;101971.59;5280681;28;20044;-67
2022/10/19 15:55:59;;;;;;;7.43;2.92;;;;;;;14.70;74.43;101978.50;5281168;28;20028;-67
2022/10/19 15:58:30;;;;;;;6.45;2.65;;;;;;;14.78;75.98;101970.38;5282950;28;20093;-67
2022/10/19 16:01:01;;;;;;;7.65;3.42;;;;;;;14.67;75.73;101957.59;5282559;28;20052;-67
2022/10/19 16:03:33;;;;;;;7.50;4.57;;;;;;;14.70;74.71;101957.03;5279942;28;20021;-67
2022/10/19 16:06:04;;;;;;;13.02;7.05;;;;;;;14.60;72.72;101948.72;5282659;28;20463;-67
2022/10/19 16:08:36;;;;;;;10.07;3.83;;;;;;;14.45;72.33;101941.25;5270230;28;20037;-68
2022/10/19 16:11:18;;;;;;;6.28;2.88;;;;;;;14.50;72.43;101946.81;5280020;28;20048;-74
2022/10/19 16:13:50;;;;;;;7.43;3.13;;;;;;;14.37;72.18;101941.88;5276510;28;20036;-74
2022/10/19 16:16:24;;;;;;;6.78;3.03;;;;;;;14.35;72.97;101947.75;5282141;28;20460;-74
2022/10/19 16:18:56;;;;;;;7.47;2.97;;;;;;;14.31;72.96;101943.84;5282517;28;20432;-75
2022/10/19 16:21:31;;;;;;;7.40;2.40;;;;;;;14.32;72.99;101945.53;5282765;28;20032;-73
2022/10/19 16:24:03;;;;;;;6.65;3.08;;;;;;;14.22;73.32;101947.56;5284993;28;20086;-73
2022/10/19 16:26:34;;;;;;;5.03;2.85;;;;;;;14.21;73.26;101948.66;5279855;28;20021;-73
2022/10/19 16:29:05;;;;;;;9.60;4.47;;;;;;;14.13;72.96;101941.72;5285269;28;20033;-74
2022/10/19 16:31:37;;;;;;;8.02;3.47;;;;;;;14.01;73.40;101938.44;5277860;28;20117;-73
2022/10/19 16:34:08;;;;;;;9.13;3.42;;;;;;;13.99;73.90;101929.53;5265581;28;20036;-73
2022/10/19 16:36:40;;;;;;;6.35;3.42;;;;;;;14.06;73.87;101927.25;5281358;28;20082;-74
2022/10/19 16:39:11;;;;;;;8.45;3.53;;;;;;;14.00;74.30;101915.28;5285675;28;20035;-73
2022/10/19 16:41:42;;;;;;;6.40;3.80;;;;;;;13.99;73.60;101918.38;5286754;28;20029;-74
2022/10/19 16:44:14;;;;;;;12.20;3.58;;;;;;;13.87;74.20;101899.19;5268302;28;20028;-75
2022/10/19 16:46:46;;;;;;;7.82;3.70;;;;;;;13.84;74.67;101906.16;5266415;28;20024;-74
2022/10/19 16:49:20;;;;;;;7.22;3.45;;;;;;;14.00;79.83;101900.50;5266045;28;20504;-78
2022/10/19 16:51:51;;;;;;;6.80;3.60;;;;;;;13.85;74.84;101901.41;5265386;28;20488;-81
2022/10/19 16:54:22;;;;;;;5.10;3.40;;;;;;;13.81;74.94;101901.16;5272317;28;20048;-76
2022/10/19 16:56:54;;;;;;;7.97;4.32;;;;;;;13.68;75.52;101897.03;5285827;28;20029;-76
2022/10/19 16:59:25;;;;;;;6.55;3.95;;;;;;;13.64;75.52;101900.69;5284559;28;20024;-75
2022/10/19 17:01:57;;;;;;;9.20;4.15;;;;;;;13.42;75.80;101901.88;5280664;28;20024;-76
2022/10/19 17:04:28;;;;;;;7.88;4.20;;;;;;;13.51;76.56;101895.72;5281274;28;20035;-75
2022/10/19 17:07:05;;;;;;;6.90;4.20;;;;;;;13.51;76.54;101895.72;5284801;28;20102;-75
2022/10/19 17:09:37;;;;;;;6.35;4.25;;;;;;;13.45;76.85;101887.38;5277484;28;20031;-75
2022/10/19 17:12:09;;;;;;;13.63;11.23;;;;;;;13.45;77.67;101881.81;5265437;28;20483;-75
2022/10/19 17:14:41;;;;;;;27.13;22.15;;;;;;;13.41;77.35;101879.88;5271271;28;20048;-75
2022/10/19 17:17:12;;;;;;;9.88;5.97;;;;;;;13.25;77.22;101884.63;5280451;28;20051;-75
2022/10/19 17:19:43;;;;;;;9.18;4.45;;;;;;;13.23;77.98;101884.06;5269672;28;20028;-76
2022/10/19 17:22:15;;;;;;;7.10;4.15;;;;;;;13.25;78.37;101877.09;5280397;28;20027;-75
2022/10/19 17:24:46;;;;;;;7.68;4.60;;;;;;;13.28;78.08;101884.09;5274860;28;20051;-75
2022/10/19 17:27:17;;;;;;;7.75;3.50;;;;;;;13.33;78.12;101878.50;5263609;28;20052;-77
2022/10/19 17:29:49;;;;;;;7.55;4.38;;;;;;;13.21;78.92;101870.41;5264295;28;20021;-75
2022/10/19 17:32:20;;;;;;;12.57;4.10;;;;;;;13.21;78.99;101864.00;5264103;28;20029;-75
